CFB Goose Bay

Airport
ICAO code: 
CYYR
IATA Code: 
YYR
Summary
ICAO Region: 
NAM
Territory: 
Location: 
Goose Bay, Labrador
Serving: 
Goose Bay
Elevation: 
160 ft
Coordinates: 
Aerial View: 
53° 18' 56.268" N, 60° 25' 6.24" W
Metar
Observation
CYYR 271422Z 00000KT 2SM -RA BR BKN002 01/01 A2934 RMK FG4SF3 VIS N 15 SLP939
Station
Goose, Nfld.
Date/Time
2021-11-27 14:22:00
Wind direction
Wind speed
00 kts
Lowest cloud amount
broken clouds
Temperature
1°C
Dew point
1°C
Humidity
100%
Weather condition
light

Description

International civil and military (Canadian Forces) airport serving Happy Valley, Labrador. There is a significant amount of military flying activity between the airport and nearby military flying areas.

Climatology

Subarctic climate (Köppen climate classification Dfc) - long, usually very cold winters, and short, cool to mild summers.

Runways

Designator Length Width Surface Rops
16/34 2920 61 ASP Yes/Yes
8/26 3367 64 ASP Yes/Yes
Airport map: 
Aerial View: 

SKYbrary Partners:

Safety knowledge contributed by: